createdAt,value
2023-10-15T00:00:42.781Z,1005.07
2023-10-15T00:01:42.761Z,1005.11
2023-10-15T00:02:42.719Z,1005.14
2023-10-15T00:03:42.765Z,1005.14
2023-10-15T00:04:42.714Z,1005.15
2023-10-15T00:05:42.683Z,1005.11
2023-10-15T00:06:42.635Z,1005.09
2023-10-15T00:07:42.658Z,1005.07
2023-10-15T00:08:42.627Z,1005.14
2023-10-15T00:09:42.605Z,1005.14
2023-10-15T00:10:42.608Z,1005.06
2023-10-15T00:11:42.596Z,1005.13
2023-10-15T00:12:42.574Z,1005.16
2023-10-15T00:13:42.618Z,1005.22
2023-10-15T00:14:42.541Z,1005.16
2023-10-15T00:15:42.543Z,1005.15
2023-10-15T00:16:42.655Z,1005.10
2023-10-15T00:17:42.623Z,1005.08
2023-10-15T00:18:42.536Z,1005.14
2023-10-15T00:19:42.525Z,1005.08
2023-10-15T00:20:42.754Z,1005.04
2023-10-15T00:21:42.462Z,1005.02
2023-10-15T00:22:42.470Z,1005.03
2023-10-15T00:23:42.426Z,1005.04
2023-10-15T00:24:42.402Z,1005.03
2023-10-15T00:25:42.463Z,1005.02
2023-10-15T00:26:42.417Z,1005.04
2023-10-15T00:27:42.373Z,1005.01
2023-10-15T00:28:42.396Z,1005.00
2023-10-15T00:29:42.356Z,1004.95
2023-10-15T00:30:42.600Z,1004.98
2023-10-15T00:31:42.355Z,1004.97
2023-10-15T00:32:42.349Z,1004.96
2023-10-15T00:33:42.301Z,1004.94
2023-10-15T00:34:42.300Z,1004.94
2023-10-15T00:35:42.269Z,1005.01
2023-10-15T00:36:42.257Z,1005.02
2023-10-15T00:37:42.515Z,1004.94
2023-10-15T00:38:42.233Z,1005.03
2023-10-15T00:39:42.205Z,1004.97
2023-10-15T00:40:42.283Z,1004.98
2023-10-15T00:41:42.179Z,1005.04
2023-10-15T00:42:42.180Z,1004.96
2023-10-15T00:43:42.185Z,1004.98
2023-10-15T00:44:42.141Z,1005.04
2023-10-15T00:45:42.129Z,1005.00
2023-10-15T00:46:42.209Z,1005.01
2023-10-15T00:47:42.158Z,1005.09
2023-10-15T00:48:42.087Z,1005.05
2023-10-15T00:49:42.109Z,1005.04
2023-10-15T00:50:42.108Z,1005.01
2023-10-15T00:51:42.063Z,1005.04
2023-10-15T00:52:42.075Z,1004.95
2023-10-15T00:53:42.079Z,1004.98
2023-10-15T00:54:41.999Z,1004.99
2023-10-15T00:55:42.020Z,1004.96
2023-10-15T00:56:41.992Z,1004.99
2023-10-15T00:57:41.965Z,1004.98
2023-10-15T00:58:42.000Z,1004.92
2023-10-15T00:59:41.958Z,1004.96
2023-10-15T01:00:41.953Z,1004.92
2023-10-15T01:01:42.010Z,1004.99
2023-10-15T01:02:41.990Z,1004.90
2023-10-15T01:03:41.896Z,1004.98
2023-10-15T01:04:41.896Z,1004.89
2023-10-15T01:05:41.868Z,1004.96
2023-10-15T01:06:41.894Z,1004.92
2023-10-15T01:07:41.856Z,1004.91
2023-10-15T01:08:41.827Z,1004.96
2023-10-15T01:09:41.815Z,1004.86
2023-10-15T01:10:41.875Z,1004.83
2023-10-15T01:11:41.810Z,1004.89
2023-10-15T01:12:41.788Z,1004.94
2023-10-15T01:13:41.852Z,1004.89
2023-10-15T01:14:41.751Z,1004.83
2023-10-15T01:15:41.740Z,1004.82
2023-10-15T01:16:41.922Z,1004.93
2023-10-15T01:17:41.989Z,1004.79
2023-10-15T01:18:41.699Z,1004.84
2023-10-15T01:19:41.722Z,1004.81
2023-10-15T01:20:41.675Z,1004.75
2023-10-15T01:21:41.660Z,1004.77
2023-10-15T01:22:41.671Z,1004.79
2023-10-15T01:23:41.659Z,1004.70
2023-10-15T01:24:41.628Z,1004.82
2023-10-15T01:25:41.681Z,1004.84
2023-10-15T01:26:41.590Z,1004.76
2023-10-15T01:27:41.598Z,1004.79
2023-10-15T01:28:41.582Z,1004.82
2023-10-15T01:29:41.565Z,1004.81
2023-10-15T01:30:41.635Z,1004.80
2023-10-15T01:31:41.578Z,1004.80
2023-10-15T01:32:41.569Z,1004.77
2023-10-15T01:33:41.505Z,1004.79
2023-10-15T01:34:41.500Z,1004.74
2023-10-15T01:35:41.484Z,1004.76
2023-10-15T01:36:41.511Z,1004.72
2023-10-15T01:37:41.476Z,1004.69
2023-10-15T01:38:41.435Z,1004.72
2023-10-15T01:39:41.427Z,1004.73
2023-10-15T01:40:41.478Z,1004.69
2023-10-15T01:41:41.406Z,1004.70
2023-10-15T01:42:41.762Z,1004.71
2023-10-15T01:43:41.375Z,1004.70
2023-10-15T01:44:41.355Z,1004.72
2023-10-15T01:45:41.350Z,1004.78
2023-10-15T01:46:41.458Z,1004.74
2023-10-15T01:47:41.403Z,1004.81
2023-10-15T01:48:41.305Z,1005.04
2023-10-15T01:49:41.298Z,1005.23
2023-10-15T01:50:41.282Z,1005.25
2023-10-15T01:51:41.277Z,1005.15
2023-10-15T01:52:41.348Z,1005.05
2023-10-15T01:53:41.265Z,1005.11
2023-10-15T01:54:41.219Z,1005.18
2023-10-15T01:55:41.246Z,1005.07
2023-10-15T01:56:41.192Z,1005.02
2023-10-15T01:57:41.185Z,1005.02
2023-10-15T01:58:41.309Z,1005.18
2023-10-15T01:59:41.317Z,1005.25
2023-10-15T02:00:41.144Z,1005.22
2023-10-15T02:01:41.251Z,1005.21
2023-10-15T02:02:41.302Z,1005.12
2023-10-15T02:03:41.226Z,1005.11
2023-10-15T02:04:41.126Z,1005.17
2023-10-15T02:05:41.122Z,1005.19
2023-10-15T02:06:41.065Z,1005.22
2023-10-15T02:07:41.083Z,1005.27
2023-10-15T02:08:41.429Z,1005.23
2023-10-15T02:09:41.024Z,1005.23
2023-10-15T02:10:41.042Z,1005.19
2023-10-15T02:11:41.019Z,1005.21
2023-10-15T02:12:41.016Z,1005.22
2023-10-15T02:13:40.978Z,1005.21
2023-10-15T02:14:40.969Z,1005.18
2023-10-15T02:15:40.969Z,1005.21
2023-10-15T02:16:40.956Z,1005.14
2023-10-15T02:17:40.949Z,1005.13
2023-10-15T02:18:40.901Z,1005.25
2023-10-15T02:19:41.058Z,1005.16
2023-10-15T02:20:40.876Z,1005.18
2023-10-15T02:21:40.884Z,1005.12
2023-10-15T02:22:40.917Z,1005.16
2023-10-15T02:23:40.840Z,1005.19
2023-10-15T02:24:40.825Z,1005.19
2023-10-15T02:25:40.930Z,1005.21
2023-10-15T02:26:40.812Z,1005.23
2023-10-15T02:27:40.782Z,1005.19
2023-10-15T02:28:40.791Z,1005.22
2023-10-15T02:29:40.754Z,1005.26
2023-10-15T02:30:40.747Z,1005.22
2023-10-15T02:31:40.868Z,1005.18
2023-10-15T02:32:40.843Z,1005.13
2023-10-15T02:33:40.868Z,1005.13
2023-10-15T02:34:40.723Z,1005.17
2023-10-15T02:35:40.710Z,1005.12
2023-10-15T02:36:40.667Z,1005.09
2023-10-15T02:37:40.701Z,1005.13
2023-10-15T02:38:40.633Z,1005.08
2023-10-15T02:39:40.626Z,1005.09
2023-10-15T02:40:40.699Z,1005.12
2023-10-15T02:41:40.600Z,1005.06
2023-10-15T02:42:40.592Z,1005.12
2023-10-15T02:43:40.622Z,1005.09
2023-10-15T02:44:40.569Z,1005.08
2023-10-15T02:45:40.603Z,1005.14
2023-10-15T02:46:40.660Z,1005.15
2023-10-15T02:47:40.589Z,1005.18
2023-10-15T02:48:40.507Z,1005.18
2023-10-15T02:49:40.652Z,1005.14
2023-10-15T02:50:40.478Z,1005.18
2023-10-15T02:51:40.479Z,1005.15
2023-10-15T02:52:40.499Z,1005.15
2023-10-15T02:53:40.455Z,1005.17
2023-10-15T02:54:40.425Z,1005.20
2023-10-15T02:55:40.478Z,1005.12
2023-10-15T02:56:40.408Z,1005.21
2023-10-15T02:57:40.392Z,1005.23
2023-10-15T02:58:40.395Z,1005.23
2023-10-15T02:59:40.362Z,1005.19
2023-10-15T03:00:40.351Z,1005.23
2023-10-15T03:01:40.384Z,1005.22
2023-10-15T03:02:40.345Z,1005.25
2023-10-15T03:03:40.368Z,1005.26
2023-10-15T03:04:40.354Z,1005.28
2023-10-15T03:05:40.286Z,1005.25
2023-10-15T03:06:40.303Z,1005.22
2023-10-15T03:07:40.302Z,1005.25
2023-10-15T03:08:49.531Z,1005.19
2023-10-15T03:09:41.228Z,1005.25
2023-10-15T03:10:40.283Z,1005.25
2023-10-15T03:11:40.213Z,1005.25
2023-10-15T03:12:40.212Z,1005.27
2023-10-15T03:13:40.209Z,1005.30
2023-10-15T03:14:40.165Z,1005.24
2023-10-15T03:15:40.284Z,1005.25
2023-10-15T03:16:40.275Z,1005.34
2023-10-15T03:17:40.156Z,1005.29
2023-10-15T03:18:40.185Z,1005.29
2023-10-15T03:19:40.185Z,1005.28
2023-10-15T03:20:40.102Z,1005.21
2023-10-15T03:21:40.180Z,1005.24
2023-10-15T03:22:40.111Z,1005.18
2023-10-15T03:23:40.208Z,1005.19
2023-10-15T03:24:40.035Z,1005.09
2023-10-15T03:25:40.021Z,1005.18
2023-10-15T03:26:40.009Z,1005.17
2023-10-15T03:27:40.001Z,1005.20
2023-10-15T03:28:40.098Z,1005.12
2023-10-15T03:29:39.976Z,1005.12
2023-10-15T03:32:04.096Z,1005.11
2023-10-15T03:33:03.926Z,1005.14
2023-10-15T03:34:03.880Z,1005.18
2023-10-15T03:35:03.886Z,1005.11
2023-10-15T03:36:03.876Z,1005.24
2023-10-15T03:37:03.849Z,1005.23
2023-10-15T03:38:03.887Z,1005.20
2023-10-15T03:39:03.843Z,1005.22
2023-10-15T03:40:03.828Z,1005.23
2023-10-15T03:41:03.837Z,1005.27
2023-10-15T03:42:03.796Z,1005.22
2023-10-15T03:43:03.778Z,1005.20
2023-10-15T03:44:03.846Z,1005.25
2023-10-15T03:45:03.775Z,1005.19
2023-10-15T03:46:03.768Z,1005.24
2023-10-15T03:47:03.741Z,1005.23
2023-10-15T03:48:03.778Z,1005.20
2023-10-15T03:49:03.682Z,1005.20
2023-10-15T03:50:03.749Z,1005.20
2023-10-15T03:51:03.690Z,1005.19
2023-10-15T03:52:03.695Z,1005.22
2023-10-15T03:53:03.640Z,1005.09
2023-10-15T03:54:03.653Z,1005.20
2023-10-15T03:55:03.607Z,1005.13
2023-10-15T03:56:03.637Z,1005.13
2023-10-15T03:57:03.606Z,1005.16
2023-10-15T03:58:03.579Z,1005.22
2023-10-15T03:59:03.676Z,1005.21
2023-10-15T04:00:58.768Z,1005.26
2023-10-15T04:02:05.889Z,1005.25
2023-10-15T04:03:06.590Z,1005.28
2023-10-15T04:03:58.603Z,1005.27
2023-10-15T04:04:58.611Z,1005.28
2023-10-15T04:05:58.569Z,1005.35
2023-10-15T04:06:58.526Z,1005.33
2023-10-15T04:07:58.574Z,1005.24
2023-10-15T04:08:58.517Z,1005.29
2023-10-15T04:09:58.501Z,1005.24
2023-10-15T04:10:58.548Z,1005.27
2023-10-15T04:11:58.461Z,1005.22
2023-10-15T04:12:58.469Z,1005.27
2023-10-15T04:13:58.467Z,1005.31
2023-10-15T04:14:58.461Z,1005.23
2023-10-15T04:15:58.401Z,1005.27
2023-10-15T04:16:58.632Z,1005.23
2023-10-15T04:17:58.496Z,1005.25
2023-10-15T04:18:58.359Z,1005.25
2023-10-15T04:19:58.391Z,1005.21
2023-10-15T04:20:58.395Z,1005.11
2023-10-15T04:21:58.351Z,1005.11
2023-10-15T04:22:58.355Z,1005.12
2023-10-15T04:24:06.086Z,1005.09
2023-10-15T04:24:58.320Z,1005.03
2023-10-15T04:25:58.339Z,1005.07
2023-10-15T04:26:58.315Z,1005.07
2023-10-15T04:27:58.276Z,1005.00
2023-10-15T04:28:58.351Z,1005.03
2023-10-15T04:29:58.253Z,1005.03
2023-10-15T04:30:58.253Z,1005.03
2023-10-15T04:31:58.360Z,1005.06
2023-10-15T04:32:58.654Z,1005.09
2023-10-15T04:33:58.204Z,1005.11
2023-10-15T04:34:58.231Z,1005.06
2023-10-15T04:35:58.185Z,1005.05
2023-10-15T04:36:58.297Z,1005.09
2023-10-15T04:37:58.230Z,1005.09
2023-10-15T04:38:58.110Z,1005.12
2023-10-15T04:40:10.401Z,1005.17
2023-10-15T04:40:59.370Z,1005.11
2023-10-15T04:41:58.059Z,1005.16
2023-10-15T04:42:58.085Z,1005.18
2023-10-15T04:43:58.072Z,1005.20
2023-10-15T04:44:58.041Z,1005.19
2023-10-15T04:45:58.199Z,1005.23
2023-10-15T04:46:58.067Z,1005.17
2023-10-15T04:47:58.129Z,1005.26
2023-10-15T04:48:58.010Z,1005.16
2023-10-15T04:49:58.134Z,1005.23
2023-10-15T04:50:58.027Z,1005.28
2023-10-15T04:51:57.972Z,1005.18
2023-10-15T04:52:57.966Z,1005.16
2023-10-15T04:53:58.072Z,1005.12
2023-10-15T04:54:57.898Z,1005.05
2023-10-15T04:55:58.178Z,1005.04
2023-10-15T04:56:57.918Z,1004.97
2023-10-15T04:57:57.889Z,1004.82
2023-10-15T04:58:57.898Z,1004.73
2023-10-15T04:59:57.911Z,1004.82
2023-10-15T05:00:57.871Z,1004.82
2023-10-15T05:01:57.942Z,1004.87
2023-10-15T05:02:57.851Z,1004.89
2023-10-15T05:03:57.859Z,1004.86
2023-10-15T05:04:57.871Z,1004.86
2023-10-15T05:05:57.752Z,1004.83
2023-10-15T05:06:57.774Z,1004.85
2023-10-15T05:07:57.776Z,1004.93
2023-10-15T05:08:57.744Z,1004.90
2023-10-15T05:09:57.764Z,1004.93
2023-10-15T05:10:57.726Z,1004.88
2023-10-15T05:11:57.706Z,1004.91
2023-10-15T05:12:57.691Z,1004.89
2023-10-15T05:13:57.713Z,1004.90
2023-10-15T05:14:57.674Z,1004.91
2023-10-15T05:15:57.837Z,1004.88
2023-10-15T05:16:57.703Z,1004.91
2023-10-15T05:17:57.686Z,1004.88
2023-10-15T05:18:59.515Z,1004.92
2023-10-15T05:19:57.648Z,1004.91
2023-10-15T05:20:57.557Z,1005.05
2023-10-15T05:21:57.586Z,1004.96
2023-10-15T05:22:57.569Z,1005.05
2023-10-15T05:23:58.508Z,1004.99
2023-10-15T05:24:57.514Z,1005.01
2023-10-15T05:25:57.511Z,1005.05
2023-10-15T05:26:57.513Z,1005.08
2023-10-15T05:27:57.507Z,1005.03
2023-10-15T05:28:57.504Z,1004.99
2023-10-15T05:29:57.480Z,1005.03
2023-10-15T05:30:57.440Z,1005.04
2023-10-15T05:31:57.486Z,1005.04
2023-10-15T05:32:57.537Z,1005.10
2023-10-15T05:33:57.403Z,1005.08
2023-10-15T05:34:57.463Z,1005.04
2023-10-15T05:35:57.397Z,1005.08
2023-10-15T05:36:57.385Z,1005.14
2023-10-15T05:37:57.388Z,1005.05
2023-10-15T05:38:57.357Z,1005.06
2023-10-15T05:39:57.338Z,1005.08
2023-10-15T05:40:57.352Z,1005.11
2023-10-15T05:41:57.320Z,1005.06
2023-10-15T05:42:57.307Z,1005.05
2023-10-15T05:43:57.318Z,1005.11
2023-10-15T05:44:57.305Z,1005.05
2023-10-15T05:45:57.238Z,1005.11
2023-10-15T05:46:57.376Z,1005.05
2023-10-15T05:47:57.277Z,1005.16
2023-10-15T05:48:57.239Z,1005.17
2023-10-15T05:49:57.244Z,1005.16
2023-10-15T05:50:57.184Z,1005.15
2023-10-15T05:51:57.185Z,1005.09
2023-10-15T05:52:57.289Z,1005.12
2023-10-15T05:53:57.166Z,1005.10
2023-10-15T05:54:57.234Z,1005.21
2023-10-15T05:55:57.217Z,1005.18
2023-10-15T05:56:57.095Z,1005.19
2023-10-15T05:57:57.108Z,1005.24
2023-10-15T05:58:57.116Z,1005.20
2023-10-15T05:59:57.089Z,1005.24
2023-10-15T06:00:57.115Z,1005.25
2023-10-15T06:01:57.084Z,1005.29
2023-10-15T06:02:57.062Z,1005.32
2023-10-15T06:03:57.064Z,1005.30
2023-10-15T06:04:57.042Z,1005.34
2023-10-15T06:05:57.013Z,1005.28
2023-10-15T06:06:56.991Z,1005.33
2023-10-15T06:07:57.002Z,1005.27
2023-10-15T06:08:56.935Z,1005.34
2023-10-15T06:09:56.961Z,1005.32
2023-10-15T06:10:56.934Z,1005.43
2023-10-15T06:11:56.925Z,1005.37
2023-10-15T06:12:56.892Z,1005.39
2023-10-15T06:13:57.055Z,1005.38
2023-10-15T06:14:56.887Z,1005.43
2023-10-15T06:15:56.879Z,1005.37
2023-10-15T06:16:57.755Z,1005.35
2023-10-15T06:17:57.085Z,1005.45
2023-10-15T06:18:56.809Z,1005.42
2023-10-15T06:19:56.891Z,1005.47
2023-10-15T06:20:56.814Z,1005.38
2023-10-15T06:21:56.766Z,1005.41
2023-10-15T06:22:57.516Z,1005.42
2023-10-15T06:23:56.797Z,1005.38
2023-10-15T06:24:56.779Z,1005.36
2023-10-15T06:25:56.830Z,1005.32
2023-10-15T06:26:56.699Z,1005.40
2023-10-15T06:27:57.439Z,1005.37
2023-10-15T06:28:56.707Z,1005.42
2023-10-15T06:29:56.685Z,1005.49
2023-10-15T06:30:56.710Z,1005.49
2023-10-15T06:31:56.685Z,1005.46
2023-10-15T06:32:56.673Z,1005.53
2023-10-15T06:33:56.646Z,1005.39
2023-10-15T06:34:56.631Z,1005.46
2023-10-15T06:35:58.358Z,1005.51
2023-10-15T06:36:56.603Z,1005.51
2023-10-15T06:37:56.715Z,1005.55
2023-10-15T06:38:56.570Z,1005.53
2023-10-15T06:40:04.757Z,1005.67
2023-10-15T06:40:57.602Z,1005.71
2023-10-15T06:41:56.544Z,1005.64
2023-10-15T06:42:56.523Z,1005.66
2023-10-15T06:43:56.526Z,1005.62
2023-10-15T06:44:56.478Z,1005.63
2023-10-15T06:45:56.458Z,1005.59
2023-10-15T06:46:56.540Z,1005.58
2023-10-15T06:47:56.539Z,1005.55
2023-10-15T06:48:56.446Z,1005.47
2023-10-15T06:49:56.533Z,1005.51
2023-10-15T06:50:56.391Z,1005.45
2023-10-15T06:51:56.429Z,1005.47
2023-10-15T06:52:56.756Z,1005.58
2023-10-15T06:53:56.393Z,1005.51
2023-10-15T06:54:56.362Z,1005.57
2023-10-15T06:55:56.532Z,1005.64
2023-10-15T06:56:56.341Z,1005.68
2023-10-15T06:57:56.330Z,1005.67
2023-10-15T06:58:56.331Z,1005.69
2023-10-15T06:59:57.585Z,1005.74
2023-10-15T07:00:56.312Z,1005.79
2023-10-15T07:01:56.309Z,1005.76
2023-10-15T07:02:56.956Z,1005.80
2023-10-15T07:03:56.295Z,1005.83
2023-10-15T07:04:56.309Z,1005.83
2023-10-15T07:05:56.197Z,1005.81
2023-10-15T07:06:56.194Z,1005.82
2023-10-15T07:07:56.310Z,1005.83
2023-10-15T07:08:56.168Z,1005.86
2023-10-15T07:09:56.154Z,1005.84
2023-10-15T07:10:56.171Z,1005.86
2023-10-15T07:11:56.861Z,1005.86
2023-10-15T07:12:56.123Z,1005.93
2023-10-15T07:13:56.187Z,1005.97
2023-10-15T07:14:56.078Z,1005.94
2023-10-15T07:15:56.100Z,1006.00
2023-10-15T07:16:57.061Z,1005.97
2023-10-15T07:17:56.391Z,1006.01
2023-10-15T07:18:56.141Z,1005.98
2023-10-15T07:19:56.876Z,1006.02
2023-10-15T07:20:56.034Z,1006.08
2023-10-15T07:21:55.989Z,1006.06
2023-10-15T07:22:56.078Z,1006.07
2023-10-15T07:23:56.015Z,1006.10
2023-10-15T07:24:55.998Z,1006.11
2023-10-15T07:25:55.969Z,1006.12
2023-10-15T07:26:55.957Z,1006.14
2023-10-15T07:27:55.948Z,1006.10
2023-10-15T07:28:55.984Z,1006.18
2023-10-15T07:29:55.931Z,1006.13
2023-10-15T07:30:55.967Z,1006.19
2023-10-15T07:31:55.918Z,1006.23
2023-10-15T07:32:55.893Z,1006.24
2023-10-15T07:33:55.867Z,1006.22
2023-10-15T07:34:55.860Z,1006.28
2023-10-15T07:35:55.811Z,1006.31
2023-10-15T07:36:55.847Z,1006.28
2023-10-15T07:37:55.832Z,1006.33
2023-10-15T07:38:55.798Z,1006.34
2023-10-15T07:39:55.785Z,1006.38
2023-10-15T07:40:57.502Z,1006.37
2023-10-15T07:41:55.770Z,1006.28
2023-10-15T07:42:55.728Z,1006.26
2023-10-15T07:43:55.755Z,1006.30
2023-10-15T07:44:55.696Z,1006.18
2023-10-15T07:45:55.734Z,1006.29
2023-10-15T07:46:55.801Z,1006.23
2023-10-15T07:47:55.732Z,1006.15
2023-10-15T07:48:55.652Z,1006.13
2023-10-15T07:49:55.689Z,1006.17
2023-10-15T07:50:55.652Z,1006.20
2023-10-15T07:51:55.606Z,1006.27
2023-10-15T07:52:55.785Z,1006.25
2023-10-15T07:53:55.597Z,1006.29
2023-10-15T07:54:55.575Z,1006.28
2023-10-15T07:55:55.679Z,1006.26
2023-10-15T07:56:55.564Z,1006.23
2023-10-15T07:57:55.574Z,1006.25
2023-10-15T07:58:55.607Z,1006.26
2023-10-15T07:59:55.549Z,1006.33
2023-10-15T08:01:09.080Z,1006.41
2023-10-15T08:01:56.578Z,1006.35
2023-10-15T08:02:55.672Z,1006.39
2023-10-15T08:03:55.726Z,1006.40
2023-10-15T08:04:55.850Z,1006.41
2023-10-15T08:05:55.791Z,1006.50
2023-10-15T08:06:55.770Z,1006.54
2023-10-15T08:07:55.444Z,1006.54
2023-10-15T08:08:55.377Z,1006.60
2023-10-15T08:09:55.424Z,1006.53
2023-10-15T08:10:55.429Z,1006.51
2023-10-15T08:11:55.367Z,1006.52
2023-10-15T08:12:55.372Z,1006.71
2023-10-15T08:13:55.380Z,1006.63
2023-10-15T08:14:55.335Z,1006.64
2023-10-15T08:15:56.091Z,1006.63
2023-10-15T08:16:55.359Z,1006.59
2023-10-15T08:17:55.319Z,1006.65
2023-10-15T08:18:55.247Z,1006.64
2023-10-15T08:19:55.350Z,1006.61
2023-10-15T08:20:55.235Z,1006.68
2023-10-15T08:21:55.226Z,1006.71
2023-10-15T08:22:55.253Z,1006.69
2023-10-15T08:23:55.220Z,1006.65
2023-10-15T08:24:55.183Z,1006.69
2023-10-15T08:25:55.244Z,1006.73
2023-10-15T08:26:55.159Z,1006.73
2023-10-15T08:27:55.166Z,1006.75
2023-10-15T08:28:55.207Z,1006.81
2023-10-15T08:29:55.126Z,1006.76
2023-10-15T08:30:55.162Z,1006.80
2023-10-15T08:31:55.142Z,1006.78
2023-10-15T08:32:55.159Z,1006.68
2023-10-15T08:33:55.095Z,1006.76
2023-10-15T08:34:55.184Z,1006.76
2023-10-15T08:35:55.067Z,1006.77
2023-10-15T08:36:55.021Z,1006.84
2023-10-15T08:37:55.112Z,1006.76
2023-10-15T08:38:55.033Z,1006.77
2023-10-15T08:39:54.981Z,1006.85
2023-10-15T08:40:55.053Z,1006.81
2023-10-15T08:41:54.954Z,1006.79
2023-10-15T08:42:54.958Z,1006.74
2023-10-15T08:43:54.978Z,1006.75
2023-10-15T08:44:54.942Z,1006.79
2023-10-15T08:45:55.023Z,1006.81
2023-10-15T08:46:54.942Z,1006.87
2023-10-15T08:47:54.986Z,1006.82
2023-10-15T08:48:54.892Z,1006.85
2023-10-15T08:49:54.906Z,1006.79
2023-10-15T08:50:54.875Z,1006.87
2023-10-15T08:51:55.294Z,1006.86
2023-10-15T08:52:55.101Z,1006.91
2023-10-15T08:53:54.829Z,1006.86
2023-10-15T08:54:54.818Z,1006.94
2023-10-15T08:55:54.796Z,1006.97
2023-10-15T08:56:54.792Z,1006.96
2023-10-15T08:57:54.821Z,1006.98
2023-10-15T08:58:55.616Z,1007.01
2023-10-15T08:59:54.754Z,1007.02
2023-10-15T09:00:54.737Z,1007.05
2023-10-15T09:01:54.751Z,1007.06
2023-10-15T09:02:54.794Z,1007.15
2023-10-15T09:03:54.748Z,1007.10
2023-10-15T09:04:54.710Z,1007.24
2023-10-15T09:05:54.696Z,1007.19
2023-10-15T09:06:54.634Z,1007.22
2023-10-15T09:07:54.681Z,1007.29
2023-10-15T09:08:54.619Z,1007.23
2023-10-15T09:09:54.597Z,1007.28
2023-10-15T09:10:54.678Z,1007.29
2023-10-15T09:11:54.609Z,1007.18
2023-10-15T09:12:54.596Z,1007.32
2023-10-15T09:13:54.574Z,1007.33
2023-10-15T09:14:54.560Z,1007.35
2023-10-15T09:15:54.572Z,1007.32
2023-10-15T09:16:57.120Z,1007.23
2023-10-15T09:17:54.510Z,1007.40
2023-10-15T09:18:55.204Z,1007.39
2023-10-15T09:19:54.500Z,1007.39
2023-10-15T09:20:54.503Z,1007.49
2023-10-15T09:21:54.514Z,1007.36
2023-10-15T09:22:54.513Z,1007.47
2023-10-15T09:23:54.437Z,1007.40
2023-10-15T09:24:54.394Z,1007.42
2023-10-15T09:25:54.541Z,1007.44
2023-10-15T09:26:54.379Z,1007.48
2023-10-15T09:27:54.376Z,1007.48
2023-10-15T09:28:54.380Z,1007.53
2023-10-15T09:29:54.356Z,1007.49
2023-10-15T09:30:54.318Z,1007.48
2023-10-15T09:31:54.427Z,1007.45
2023-10-15T09:32:54.350Z,1007.47
2023-10-15T09:33:54.325Z,1007.64
2023-10-15T09:34:54.325Z,1007.63
2023-10-15T09:35:54.267Z,1007.56
2023-10-15T09:36:54.258Z,1007.68
2023-10-15T09:37:54.299Z,1007.62
2023-10-15T09:38:54.216Z,1007.68
2023-10-15T09:39:54.252Z,1007.78
2023-10-15T09:40:54.257Z,1007.67
2023-10-15T09:41:54.180Z,1007.68
2023-10-15T09:42:54.163Z,1007.76
2023-10-15T09:43:54.210Z,1007.70
2023-10-15T09:44:54.137Z,1007.76
2023-10-15T09:45:54.156Z,1007.70
2023-10-15T09:46:54.156Z,1007.74
2023-10-15T09:47:54.158Z,1007.82
2023-10-15T09:48:54.096Z,1007.78
2023-10-15T09:49:54.130Z,1007.73
2023-10-15T09:50:54.100Z,1007.88
2023-10-15T09:51:54.078Z,1007.91
2023-10-15T09:52:54.096Z,1007.90
2023-10-15T09:53:54.024Z,1007.92
2023-10-15T09:54:54.015Z,1007.93
2023-10-15T09:55:54.045Z,1007.90
2023-10-15T09:56:54.116Z,1007.84
2023-10-15T09:57:53.993Z,1007.96
2023-10-15T09:58:53.988Z,1007.91
2023-10-15T09:59:53.983Z,1007.89
2023-10-15T10:00:53.979Z,1007.87
2023-10-15T10:01:54.026Z,1007.92
2023-10-15T10:02:54.046Z,1007.87
2023-10-15T10:03:54.041Z,1007.87
2023-10-15T10:04:53.971Z,1007.83
2023-10-15T10:05:53.890Z,1007.95
2023-10-15T10:06:53.846Z,1007.93
2023-10-15T10:07:53.919Z,1007.91
2023-10-15T10:08:53.830Z,1007.94
2023-10-15T10:09:53.811Z,1007.86
2023-10-15T10:10:53.901Z,1007.93
2023-10-15T10:11:53.795Z,1007.97
2023-10-15T10:12:53.788Z,1008.00
2023-10-15T10:13:53.866Z,1008.02
2023-10-15T10:14:53.804Z,1008.02
2023-10-15T10:15:53.788Z,1007.98
2023-10-15T10:16:53.888Z,1007.99
2023-10-15T10:17:53.848Z,1007.97
2023-10-15T10:18:53.854Z,1008.03
2023-10-15T10:19:53.896Z,1008.03
2023-10-15T10:20:53.664Z,1008.06
2023-10-15T10:21:53.655Z,1008.04
2023-10-15T10:22:53.699Z,1008.09
2023-10-15T10:23:53.633Z,1008.12
2023-10-15T10:24:53.679Z,1008.13
2023-10-15T10:25:53.659Z,1008.02
2023-10-15T10:26:53.607Z,1008.04
2023-10-15T10:28:01.096Z,1008.01
2023-10-15T10:28:54.576Z,1008.11
2023-10-15T10:29:53.576Z,1008.09
2023-10-15T10:30:53.598Z,1008.04
2023-10-15T10:31:53.600Z,1008.05
2023-10-15T10:32:53.538Z,1008.13
2023-10-15T10:33:53.520Z,1008.14
2023-10-15T10:34:53.545Z,1008.12
2023-10-15T10:35:53.483Z,1008.10
2023-10-15T10:36:53.573Z,1008.08
2023-10-15T10:37:53.481Z,1008.05
2023-10-15T10:38:53.458Z,1008.12
2023-10-15T10:39:53.432Z,1008.02
2023-10-15T10:40:53.416Z,1008.02
2023-10-15T10:41:53.404Z,1008.11
2023-10-15T10:42:53.422Z,1008.14
2023-10-15T10:44:01.651Z,1008.00
2023-10-15T10:44:54.424Z,1008.15
2023-10-15T10:45:53.464Z,1008.20
2023-10-15T10:46:53.455Z,1008.09
2023-10-15T10:47:53.406Z,1008.09
2023-10-15T10:48:53.388Z,1008.14
2023-10-15T10:49:53.359Z,1008.04
2023-10-15T10:50:53.305Z,1008.09
2023-10-15T10:51:53.279Z,1008.02
2023-10-15T10:52:53.311Z,1008.14
2023-10-15T10:53:53.235Z,1008.09
2023-10-15T10:54:53.257Z,1008.10
2023-10-15T10:55:53.281Z,1008.10
2023-10-15T10:56:53.224Z,1008.14
2023-10-15T10:57:53.225Z,1008.10
2023-10-15T10:58:53.270Z,1008.06
2023-10-15T10:59:53.196Z,1008.08
2023-10-15T11:00:53.299Z,1008.05
2023-10-15T11:01:53.239Z,1008.04
2023-10-15T11:02:53.241Z,1008.05
2023-10-15T11:03:53.149Z,1008.12
2023-10-15T11:04:53.135Z,1008.01
2023-10-15T11:05:53.089Z,1008.06
2023-10-15T11:06:53.111Z,1008.08
2023-10-15T11:07:53.071Z,1007.99
2023-10-15T11:08:53.046Z,1008.02
2023-10-15T11:09:53.062Z,1008.10
2023-10-15T11:10:53.109Z,1008.06
2023-10-15T11:11:53.050Z,1008.12
2023-10-15T11:12:53.052Z,1008.07
2023-10-15T11:13:53.039Z,1008.06
2023-10-15T11:14:53.001Z,1007.99
2023-10-15T11:15:53.028Z,1008.03
2023-10-15T11:16:52.980Z,1007.99
2023-10-15T11:17:53.039Z,1008.04
2023-10-15T11:18:52.964Z,1008.12
2023-10-15T11:19:52.998Z,1008.16
2023-10-15T11:20:52.897Z,1008.17
2023-10-15T11:21:52.913Z,1008.13
2023-10-15T11:22:52.903Z,1008.14
2023-10-15T11:23:52.872Z,1008.14
2023-10-15T11:24:52.877Z,1008.11
2023-10-15T11:25:52.906Z,1008.10
2023-10-15T11:26:52.841Z,1008.11
2023-10-15T11:27:52.828Z,1008.11
2023-10-15T11:28:52.801Z,1008.10
2023-10-15T11:29:52.788Z,1008.09
2023-10-15T11:30:52.765Z,1008.09
2023-10-15T11:31:52.761Z,1008.17
2023-10-15T11:32:53.125Z,1008.11
2023-10-15T11:33:52.718Z,1008.02
2023-10-15T11:34:52.761Z,1008.16
2023-10-15T11:35:52.726Z,1008.14
2023-10-15T11:36:52.699Z,1008.16
2023-10-15T11:37:52.689Z,1008.14
2023-10-15T11:38:52.756Z,1008.05
2023-10-15T11:39:52.652Z,1008.15
2023-10-15T11:40:52.664Z,1008.04
2023-10-15T11:41:52.645Z,1008.06
2023-10-15T11:42:52.870Z,1008.09
2023-10-15T11:43:52.623Z,1008.07
2023-10-15T11:44:52.735Z,1008.08
2023-10-15T11:45:52.568Z,1008.12
2023-10-15T11:46:52.706Z,1008.11
2023-10-15T11:47:52.593Z,1008.14
2023-10-15T11:48:52.527Z,1008.09
2023-10-15T11:49:52.619Z,1008.15
2023-10-15T11:50:52.536Z,1008.14
2023-10-15T11:51:52.515Z,1008.08
2023-10-15T11:52:52.578Z,1008.12
2023-10-15T11:53:52.486Z,1008.16
2023-10-15T11:54:53.135Z,1008.16
2023-10-15T11:55:52.477Z,1008.25
2023-10-15T11:56:52.447Z,1008.20
2023-10-15T11:57:52.434Z,1008.22
2023-10-15T11:58:52.484Z,1008.21
2023-10-15T11:59:55.678Z,1008.21
2023-10-15T12:00:52.391Z,1008.20
2023-10-15T12:01:52.410Z,1008.15
2023-10-15T12:02:52.394Z,1008.18
2023-10-15T12:03:52.355Z,1008.18
2023-10-15T12:04:52.364Z,1008.20
2023-10-15T12:05:52.347Z,1008.21
2023-10-15T12:06:52.310Z,1008.20
2023-10-15T12:07:54.435Z,1008.18